Aviation Digital Data Service (ADDS)

Output produced by METARs form (2342 UTC 29 May 2020)
found at http://www.aviationweather.gov/metar/data/
 
KSAV 292253Z 18012KT 10SM FEW040 SCT065 BKN150 BKN200 29/22 A3001 RMK AO2 LTG DSNT N SLP163 T02890222
KSAV 292335Z 3000/3024 18009KT P6SM -SHRA SCT040 OVC100 
     FM300200 19004KT P6SM SCT025 BKN120 
     FM300800 VRB03KT P6SM BKN020 
     FM301400 24005KT P6SM SCT020 BKN120 
     FM301900 22008KT P6SM SCT035 BKN100
       
KSVN 292256Z AUTO 18008KT 10SM CLR 28/22 A2999 RMK AO2 LTG DSNT SW-W SLP158 T02760221 $
TAF KSVN 292000Z 2920/3102 VRB06KT 9999 SCT020 SCT120 QNH2997INS 
     TEMPO 2922/3002 VRB15G25KT 4800 TSRA BKN020CB BKN050 OVC075 
     BECMG 3004/3005 18006KT 9999 SCT010 SCT040 QNH3001INS 
     TEMPO 3007/3011 BKN009 
     BECMG 3014/3015 VRB06KT 9999 SCT020 QNH2999INS TX30/2921Z TN23/3014Z
       
KLHW 292329Z AUTO 22008KT 7SM TSRA FEW024 BKN060 OVC085 23/22 A3002 RMK AO2 RAB14 TSE2259TSB13 SLP168 $
KTBR 292335Z AUTO 00000KT 10SM CLR 26/21 A3001 RMK AO2 LTG DSNT E AND SW T02620212
KVDI 292335Z AUTO 25005KT 10SM TSRA SCT009 BKN022 OVC036 25/21 A3005 RMK AO2 LTG DSNT ALQS
KJYL 292335Z AUTO 00000KT 10SM VCTS SCT041 SCT060 28/22 A3002 RMK AO2 LTG DSNT E THRU SW T02750216
KDBN 292335Z AUTO 23006KT 10SM SCT110 26/20 A3003 RMK AO2
KJES 292337Z AUTO 24003KT 10SM -VCTSRA SCT050 OVC075 24/21 A3007 RMK AO2 LTG DSNT SW THRU N
KSSI 292253Z AUTO 16007KT 9SM -RA BKN110 26/24 A3001 RMK AO2 RAB2157 SLP164 P0003 T02610244
KSSI 292339Z 3000/3024 17006KT P6SM VCTS SCT025CB BKN100 OVC200 
     FM300500 22005KT P6SM SCT015 BKN250 
     FM301500 21008KT P6SM VCSH SCT025 BKN080 
     FM301900 17008KT P6SM VCTS SCT025CB BKN150
       
KBQK 292335Z AUTO 26003KT 10SM SCT010 SCT034 SCT065 25/24 A3004 RMK AO2 LTG DSNT NW P0001 T02480240
KAYS 292335Z AUTO 15005KT 10SM -RA SCT080 OVC110 23/20 A3005 RMK AO2 T02260198 TSNO
KNBC 292324Z AUTO 17005KT 10SM TS CLR 27/22 A3002 RMK AO2 TSB18 T02720222
TAF KNBC 2921/3021 18010G15KT 9999 BKN110 QNH2998INS 
     BECMG 3006/3008 23010KT 6000 -TSRA BR BKN020CB OVC080 QNH2996INS T21/3010Z
T31/3019Z LAST NO AMENDS UNTIL 3109
       
KHXD 292250Z 20011KT 10SM BKN200 27/23 A3003